Time;durP1;ratioP1;P1;durP2;ratioP2;P2;SDS_P1;SDS_P2;PMS_P1;PMS_P2;Temp;Humidity;BMP_temperature;BMP_pressure;BME280_temperature;BME280_humidity;BME280_pressure;Samples;Min_cycle;Max_cycle;Signal;HPM_P1;HPM_P2
2021/10/05 00:00:08;;;;;;;4.30;1.10;;;14.60;99.90;;;;;;5086296;28;20168;-63
2021/10/05 00:02:34;;;;;;;5.82;1.50;;;14.70;99.90;;;;;;5086136;28;20172;-64
2021/10/05 00:05:00;;;;;;;5.78;1.15;;;14.60;99.90;;;;;;5086092;28;20175;-63
2021/10/05 00:07:25;;;;;;;6.93;1.40;;;14.60;99.90;;;;;;5085973;28;20198;-63
2021/10/05 00:09:51;;;;;;;4.78;1.50;;;14.60;99.90;;;;;;5085773;28;20275;-63
2021/10/05 00:12:17;;;;;;;4.78;1.20;;;14.50;99.90;;;;;;5085505;28;20202;-63
2021/10/05 00:14:43;;;;;;;5.90;1.42;;;14.40;99.90;;;;;;5086180;28;20190;-63
2021/10/05 00:17:09;;;;;;;6.28;1.10;;;14.50;99.90;;;;;;5085854;28;20194;-63
2021/10/05 00:19:34;;;;;;;8.07;1.38;;;14.40;99.90;;;;;;5086236;28;20160;-64
2021/10/05 00:22:00;;;;;;;4.35;1.05;;;14.40;99.90;;;;;;5085996;28;20164;-63
2021/10/05 00:24:26;;;;;;;6.75;1.30;;;14.40;99.90;;;;;;5086111;28;20168;-63
2021/10/05 00:26:51;;;;;;;3.42;1.23;;;14.30;99.90;;;;;;5085344;28;20176;-63
2021/10/05 00:29:17;;;;;;;5.25;1.10;;;14.30;99.90;;;;;;5085980;28;20210;-64
2021/10/05 00:31:43;;;;;;;10.32;1.17;;;14.30;99.90;;;;;;5085777;28;20163;-63
2021/10/05 00:34:08;;;;;;;6.70;1.30;;;14.30;99.90;;;;;;5085864;28;20171;-63
2021/10/05 00:36:34;;;;;;;9.27;1.30;;;14.40;99.90;;;;;;5085506;28;20172;-63
2021/10/05 00:39:00;;;;;;;3.33;1.25;;;14.40;99.90;;;;;;5084611;28;20168;-63
2021/10/05 00:41:26;;;;;;;4.57;0.90;;;14.50;99.90;;;;;;5085338;28;20198;-63
2021/10/05 00:43:51;;;;;;;7.63;1.10;;;14.50;99.90;;;;;;5085913;28;20160;-63
2021/10/05 00:46:21;;;;;;;6.05;1.17;;;14.40;99.90;;;;;;5085384;28;20186;-63
2021/10/05 00:48:48;;;;;;;6.68;1.13;;;14.40;99.90;;;;;;5085821;28;20435;-64
2021/10/05 00:51:14;;;;;;;4.72;1.30;;;14.40;99.90;;;;;;5085800;28;20179;-64
2021/10/05 00:53:40;;;;;;;11.13;1.63;;;14.40;99.90;;;;;;5085578;28;20160;-64
2021/10/05 00:56:07;;;;;;;7.55;1.30;;;14.40;99.90;;;;;;5087512;28;20168;-63
2021/10/05 00:58:32;;;;;;;6.43;1.08;;;14.20;99.90;;;;;;5088326;28;20164;-63
2021/10/05 01:00:59;;;;;;;3.63;1.05;;;14.20;99.90;;;;;;5089226;28;20659;-63
2021/10/05 01:03:25;;;;;;;2.72;1.02;;;14.20;99.90;;;;;;5089445;28;20156;-63
2021/10/05 01:05:50;;;;;;;4.88;1.15;;;14.30;99.90;;;;;;5087743;28;20176;-63
2021/10/05 01:08:20;;;;;;;9.50;1.00;;;14.20;99.90;;;;;;5089006;28;20346;-64
2021/10/05 01:10:46;;;;;;;4.00;1.10;;;14.20;99.90;;;;;;5088807;28;20164;-63
2021/10/05 01:13:12;;;;;;;6.72;1.20;;;14.00;99.90;;;;;;5087921;28;20159;-63
2021/10/05 01:15:37;;;;;;;2.88;1.33;;;14.10;99.90;;;;;;5088931;28;20633;-64
2021/10/05 01:18:04;;;;;;;3.60;1.05;;;14.20;99.90;;;;;;5089126;28;20160;-64
2021/10/05 01:20:29;;;;;;;6.28;1.40;;;14.20;99.90;;;;;;5089144;28;20160;-64
2021/10/05 01:22:55;;;;;;;4.13;1.00;;;14.10;99.90;;;;;;5089062;28;20201;-64
2021/10/05 01:25:21;;;;;;;6.03;1.10;;;13.90;99.90;;;;;;5088516;28;20164;-64
2021/10/05 01:27:50;;;;;;;13.13;1.70;;;13.90;99.90;;;;;;5088632;28;20216;-63
2021/10/05 01:30:17;;;;;;;3.88;1.20;;;14.00;99.90;;;;;;5089021;28;20168;-63
2021/10/05 01:32:44;;;;;;;5.40;1.52;;;14.00;99.90;;;;;;5088744;28;20156;-64
2021/10/05 01:35:10;;;;;;;3.20;0.90;;;13.80;99.90;;;;;;5088746;28;20152;-63
2021/10/05 01:37:36;;;;;;;10.05;1.50;;;13.80;99.90;;;;;;5088681;28;20168;-64
2021/10/05 01:40:08;;;;;;;6.18;1.58;;;13.90;99.90;;;;;;5088817;28;20190;-63
2021/10/05 01:42:35;;;;;;;6.50;1.05;;;14.00;99.90;;;;;;5088006;28;20547;-64
2021/10/05 01:45:00;;;;;;;2.95;1.10;;;14.10;99.90;;;;;;5088768;28;20690;-63
2021/10/05 01:47:26;;;;;;;4.20;1.10;;;14.10;99.90;;;;;;5088373;28;20234;-63
2021/10/05 01:49:52;;;;;;;3.58;1.15;;;14.10;99.90;;;;;;5088712;28;20207;-64
2021/10/05 01:52:18;;;;;;;5.32;1.30;;;14.00;99.90;;;;;;5088411;28;20196;-64
2021/10/05 01:54:43;;;;;;;4.45;1.52;;;14.00;99.90;;;;;;5088375;28;20260;-63
2021/10/05 01:57:09;;;;;;;4.50;1.40;;;13.90;99.90;;;;;;5086666;28;20171;-64
2021/10/05 01:59:35;;;;;;;6.78;1.17;;;13.90;99.90;;;;;;5088447;28;20259;-64
2021/10/05 02:02:00;;;;;;;11.40;1.30;;;14.00;99.90;;;;;;5088136;28;20160;-64
2021/10/05 02:04:26;;;;;;;6.97;1.20;;;13.90;99.90;;;;;;5088443;28;20160;-64
2021/10/05 02:06:52;;;;;;;5.65;1.27;;;13.90;99.90;;;;;;5087809;28;20172;-63
2021/10/05 02:09:17;;;;;;;3.65;0.85;;;14.00;99.90;;;;;;5087853;28;20571;-64
2021/10/05 02:11:43;;;;;;;5.93;1.02;;;14.10;99.90;;;;;;5087631;28;20167;-63
2021/10/05 02:14:09;;;;;;;2.85;1.40;;;13.90;99.90;;;;;;5086805;28;20164;-64
2021/10/05 02:16:35;;;;;;;5.53;1.85;;;13.80;99.90;;;;;;5087859;28;20254;-64
2021/10/05 02:19:01;;;;;;;3.45;0.88;;;13.70;99.90;;;;;;5088116;28;20172;-63
2021/10/05 02:21:27;;;;;;;4.95;1.40;;;13.90;99.90;;;;;;5087909;28;20172;-64
2021/10/05 02:26:37;;;;;;;6.60;1.30;;;13.90;99.90;;;;;;5087387;28;20187;-64
2021/10/05 02:29:03;;;;;;;11.00;1.60;;;13.90;99.90;;;;;;5087680;28;20188;-63
2021/10/05 02:31:29;;;;;;;3.92;1.30;;;13.90;99.90;;;;;;5087873;28;20194;-64
2021/10/05 02:33:55;;;;;;;6.80;1.27;;;13.80;99.90;;;;;;5087824;28;20164;-64
2021/10/05 02:36:21;;;;;;;6.05;1.10;;;13.80;99.90;;;;;;5087257;28;20198;-63
2021/10/05 02:38:47;;;;;;;3.53;1.17;;;13.80;99.90;;;;;;5087629;28;20174;-63
2021/10/05 02:41:12;;;;;;;2.88;0.90;;;13.80;99.90;;;;;;5087149;28;20179;-63
2021/10/05 02:43:38;;;;;;;6.40;2.03;;;13.70;99.90;;;;;;5086226;28;20708;-64
2021/10/05 02:46:04;;;;;;;12.48;1.50;;;13.70;99.90;;;;;;5087119;28;20259;-63
2021/10/05 02:48:30;;;;;;;4.47;1.58;;;13.70;99.90;;;;;;5086004;28;20199;-63
2021/10/05 02:50:55;;;;;;;5.75;1.33;;;13.70;99.90;;;;;;5087113;28;20164;-63
2021/10/05 02:53:21;;;;;;;10.05;1.58;;;13.80;99.90;;;;;;5087168;28;20179;-63
2021/10/05 02:55:47;;;;;;;3.85;1.02;;;13.70;99.90;;;;;;5087026;28;20170;-63
2021/10/05 02:58:14;;;;;;;3.20;1.10;;;13.80;99.90;;;;;;5086799;28;20185;-63
2021/10/05 03:00:41;;;;;;;6.60;1.25;;;13.70;99.90;;;;;;5087123;28;20193;-63
2021/10/05 03:03:07;;;;;;;4.20;1.20;;;13.70;99.90;;;;;;5087146;28;20239;-64
2021/10/05 03:05:32;;;;;;;3.63;1.30;;;13.70;99.90;;;;;;5085437;28;20637;-63
2021/10/05 03:07:58;;;;;;;5.38;1.30;;;13.70;99.90;;;;;;5085459;28;20171;-63
2021/10/05 03:10:24;;;;;;;4.38;1.35;;;13.70;99.90;;;;;;5086909;28;20156;-63
2021/10/05 03:12:50;;;;;;;3.50;0.93;;;13.60;99.90;;;;;;5085257;28;20172;-64
2021/10/05 03:15:16;;;;;;;6.78;1.38;;;13.60;99.90;;;;;;5086984;28;20251;-63
2021/10/05 03:17:42;;;;;;;2.97;1.23;;;13.60;99.90;;;;;;5086229;28;20172;-63
2021/10/05 03:20:09;;;;;;;1.98;1.05;;;13.50;99.90;;;;;;5085360;28;20164;-64
2021/10/05 03:22:34;;;;;;;4.32;1.30;;;13.40;99.90;;;;;;5086777;28;20242;-63
2021/10/05 03:25:00;;;;;;;4.10;1.23;;;13.40;99.90;;;;;;5086730;28;20234;-63
2021/10/05 03:27:26;;;;;;;11.30;1.20;;;13.30;99.90;;;;;;5085961;28;20168;-63
2021/10/05 03:29:51;;;;;;;3.28;1.60;;;13.30;99.90;;;;;;5086619;28;20251;-63
2021/10/05 03:32:17;;;;;;;6.95;1.30;;;13.20;99.90;;;;;;5086453;28;20167;-64
2021/10/05 03:34:43;;;;;;;4.38;1.30;;;13.30;99.90;;;;;;5086636;28;20246;-63
2021/10/05 03:37:08;;;;;;;5.15;1.35;;;13.30;99.90;;;;;;5086383;28;20168;-63
2021/10/05 03:39:34;;;;;;;2.45;1.20;;;13.30;99.90;;;;;;5086689;28;20239;-63
2021/10/05 03:42:00;;;;;;;4.15;1.20;;;13.30;99.90;;;;;;5085877;28;20183;-63
2021/10/05 03:44:26;;;;;;;5.38;1.23;;;13.20;99.90;;;;;;5086546;28;20223;-63
2021/10/05 03:46:51;;;;;;;3.50;1.05;;;13.20;99.90;;;;;;5086130;28;20168;-63
2021/10/05 03:49:17;;;;;;;5.60;1.45;;;13.20;99.90;;;;;;5086206;28;20572;-63
2021/10/05 03:51:46;;;;;;;4.78;1.10;;;13.20;99.90;;;;;;5086225;28;20160;-63
2021/10/05 03:54:12;;;;;;;6.15;1.13;;;13.10;99.90;;;;;;5086471;28;20152;-63
2021/10/05 03:56:37;;;;;;;3.53;1.20;;;13.10;99.90;;;;;;5084365;28;20186;-64
2021/10/05 03:59:03;;;;;;;4.55;1.20;;;13.10;99.90;;;;;;5086309;28;20164;-63
2021/10/05 04:01:28;;;;;;;6.07;1.35;;;13.10;99.90;;;;;;5085807;28;20176;-63
2021/10/05 04:03:54;;;;;;;7.07;1.35;;;13.00;99.90;;;;;;5086259;28;20259;-63
2021/10/05 04:06:20;;;;;;;4.75;1.10;;;13.00;99.90;;;;;;5085780;28;20198;-63
2021/10/05 04:08:45;;;;;;;5.57;1.30;;;13.10;99.90;;;;;;5085772;28;20228;-64
2021/10/05 04:11:13;;;;;;;7.75;1.35;;;13.00;99.90;;;;;;5084349;28;20363;-63
2021/10/05 04:13:39;;;;;;;6.10;1.35;;;13.00;99.90;;;;;;5086288;28;20202;-63
2021/10/05 04:16:05;;;;;;;2.45;1.15;;;13.00;99.90;;;;;;5085817;28;20214;-63
2021/10/05 04:18:31;;;;;;;8.95;1.67;;;13.00;99.90;;;;;;5086125;28;20168;-63
2021/10/05 04:20:57;;;;;;;6.20;1.38;;;13.00;99.90;;;;;;5084559;28;20223;-63
2021/10/05 04:23:22;;;;;;;5.40;1.30;;;13.00;99.90;;;;;;5085960;28;20632;-63
2021/10/05 04:25:48;;;;;;;6.00;1.55;;;13.00;99.90;;;;;;5085592;28;20632;-64
2021/10/05 04:28:14;;;;;;;3.75;1.13;;;13.10;99.90;;;;;;5085091;28;20188;-63
2021/10/05 04:30:40;;;;;;;3.70;1.17;;;13.10;99.90;;;;;;5087247;28;20566;-63
2021/10/05 04:33:06;;;;;;;7.63;1.30;;;13.10;99.90;;;;;;5089767;28;20168;-63
2021/10/05 04:35:32;;;;;;;5.18;1.33;;;13.10;99.90;;;;;;5088389;28;20533;-64
2021/10/05 04:37:57;;;;;;;7.20;1.83;;;13.10;99.90;;;;;;5088455;28;20156;-63
2021/10/05 04:40:23;;;;;;;3.83;1.27;;;13.10;99.90;;;;;;5088313;28;20635;-63
2021/10/05 04:42:49;;;;;;;5.72;1.30;;;13.10;99.90;;;;;;5089444;28;20655;-63
2021/10/05 04:45:15;;;;;;;3.22;1.27;;;13.10;99.90;;;;;;5089665;28;20183;-63
2021/10/05 04:47:41;;;;;;;10.27;2.10;;;13.10;99.90;;;;;;5089232;28;20179;-63
2021/10/05 04:50:09;;;;;;;5.43;1.45;;;13.10;99.90;;;;;;5088951;28;20199;-63
2021/10/05 04:52:35;;;;;;;10.98;1.67;;;13.10;99.90;;;;;;5088903;28;20652;-63
2021/10/05 04:55:01;;;;;;;8.77;1.90;;;13.10;99.90;;;;;;5089286;28;20644;-63
2021/10/05 04:57:27;;;;;;;6.15;1.88;;;13.10;99.90;;;;;;5088613;28;20164;-63
2021/10/05 04:59:52;;;;;;;3.28;1.20;;;13.10;99.90;;;;;;5089292;28;20170;-63
2021/10/05 05:02:18;;;;;;;2.92;1.20;;;13.10;99.90;;;;;;5088627;28;20171;-63
2021/10/05 05:04:44;;;;;;;4.45;1.30;;;13.10;99.90;;;;;;5089084;28;20223;-63
2021/10/05 05:07:09;;;;;;;3.33;1.20;;;13.10;99.90;;;;;;5088792;28;20168;-63
2021/10/05 05:09:35;;;;;;;8.30;1.30;;;13.10;99.90;;;;;;5088840;28;20222;-63
2021/10/05 05:12:00;;;;;;;3.40;1.40;;;13.10;99.90;;;;;;5088359;28;20176;-63
2021/10/05 05:14:26;;;;;;;5.43;1.40;;;13.10;99.90;;;;;;5089034;28;20153;-63
2021/10/05 05:16:52;;;;;;;5.80;1.67;;;13.00;99.90;;;;;;5087266;28;20592;-63
2021/10/05 05:19:17;;;;;;;6.35;1.38;;;13.00;99.90;;;;;;5088841;28;20176;-63
2021/10/05 05:21:43;;;;;;;10.50;1.98;;;12.90;99.90;;;;;;5088463;28;20164;-63
2021/10/05 05:24:09;;;;;;;6.25;1.73;;;13.00;99.90;;;;;;5088226;28;20179;-63
2021/10/05 05:26:34;;;;;;;3.53;1.42;;;13.00;99.90;;;;;;5087954;28;20168;-63
2021/10/05 05:29:00;;;;;;;7.13;1.80;;;13.00;99.90;;;;;;5088462;28;20183;-63
2021/10/05 05:31:26;;;;;;;5.22;1.55;;;12.90;99.90;;;;;;5088522;28;20581;-63
2021/10/05 05:33:51;;;;;;;6.43;2.25;;;13.00;99.90;;;;;;5088026;28;20621;-63
2021/10/05 05:36:17;;;;;;;7.75;1.80;;;13.00;99.90;;;;;;5087275;28;20160;-63
2021/10/05 05:38:43;;;;;;;7.43;1.63;;;12.90;99.90;;;;;;5090330;28;20603;-63
2021/10/05 05:41:08;;;;;;;5.45;1.63;;;12.90;99.90;;;;;;5090020;28;20164;-63
2021/10/05 05:43:34;;;;;;;9.55;2.03;;;12.90;99.90;;;;;;5089016;28;20176;-63
2021/10/05 05:46:00;;;;;;;9.23;1.90;;;12.80;99.90;;;;;;5088237;28;20164;-63
2021/10/05 05:48:25;;;;;;;5.13;1.80;;;12.80;99.90;;;;;;5088520;28;20183;-63
2021/10/05 05:50:51;;;;;;;2.35;1.50;;;12.90;99.90;;;;;;5088314;28;20640;-63
2021/10/05 05:53:18;;;;;;;9.13;2.05;;;12.80;99.90;;;;;;5088418;28;20160;-63
2021/10/05 05:55:44;;;;;;;4.97;1.83;;;12.80;99.90;;;;;;5087870;28;20155;-63
2021/10/05 05:58:16;;;;;;;11.57;1.90;;;12.80;99.90;;;;;;5088010;28;20172;-63
2021/10/05 06:00:43;;;;;;;5.25;1.70;;;12.80;99.90;;;;;;5088183;28;20168;-63
2021/10/05 06:03:10;;;;;;;7.28;1.90;;;12.90;99.90;;;;;;5088165;28;20164;-63
2021/10/05 06:05:36;;;;;;;6.95;1.80;;;12.90;99.90;;;;;;5087983;28;20183;-63
2021/10/05 06:08:02;;;;;;;8.88;2.42;;;12.90;99.90;;;;;;5087567;28;20254;-63
2021/10/05 06:10:27;;;;;;;10.18;1.77;;;13.00;99.90;;;;;;5088069;28;20155;-63
2021/10/05 06:12:53;;;;;;;7.70;1.75;;;13.00;99.90;;;;;;5086152;28;20222;-63
2021/10/05 06:15:20;;;;;;;7.90;1.73;;;12.90;99.90;;;;;;5087991;28;20223;-63
2021/10/05 06:17:47;;;;;;;5.22;1.50;;;12.90;99.90;;;;;;5086850;28;20420;-63
2021/10/05 06:20:16;;;;;;;5.45;1.30;;;13.00;99.90;;;;;;5087788;28;20213;-63
2021/10/05 06:22:42;;;;;;;8.18;2.00;;;13.00;99.90;;;;;;5087637;28;20186;-63
2021/10/05 06:25:12;;;;;;;6.20;1.60;;;13.10;99.90;;;;;;5087582;28;20175;-64
2021/10/05 06:27:38;;;;;;;8.00;1.33;;;13.10;99.90;;;;;;5086808;28;20179;-63
2021/10/05 06:30:05;;;;;;;2.45;1.50;;;13.10;99.90;;;;;;5087730;28;20194;-63
2021/10/05 06:32:31;;;;;;;7.72;2.17;;;13.10;99.90;;;;;;5087311;28;20625;-63
2021/10/05 06:34:56;;;;;;;6.43;1.75;;;13.20;99.90;;;;;;5087621;28;20162;-63
2021/10/05 06:37:22;;;;;;;8.05;1.55;;;13.20;99.90;;;;;;5087365;28;20192;-63
2021/10/05 06:39:48;;;;;;;12.70;1.67;;;13.20;99.90;;;;;;5087592;28;20161;-63
2021/10/05 06:42:13;;;;;;;11.07;2.08;;;13.30;99.90;;;;;;5086853;28;20302;-64
2021/10/05 06:44:40;;;;;;;4.28;1.50;;;13.30;99.90;;;;;;5086815;28;20172;-63
2021/10/05 06:47:05;;;;;;;6.88;1.60;;;13.30;99.90;;;;;;5087021;28;20644;-63
2021/10/05 06:49:31;;;;;;;7.00;1.48;;;13.40;99.90;;;;;;5087147;28;20184;-63
2021/10/05 06:51:57;;;;;;;10.20;2.13;;;13.30;99.90;;;;;;5086640;28;20164;-64
2021/10/05 06:54:22;;;;;;;8.90;1.83;;;13.30;99.90;;;;;;5086464;28;20176;-64
2021/10/05 06:56:48;;;;;;;7.05;1.27;;;13.40;99.90;;;;;;5086273;28;20175;-63
2021/10/05 06:59:14;;;;;;;10.13;1.45;;;13.40;99.90;;;;;;5087090;28;20210;-63
2021/10/05 07:01:40;;;;;;;4.13;1.40;;;13.50;99.90;;;;;;5086824;28;20168;-63
2021/10/05 07:04:05;;;;;;;6.93;1.73;;;13.60;99.90;;;;;;5086973;28;20160;-62
2021/10/05 07:06:31;;;;;;;4.95;1.20;;;13.70;99.90;;;;;;5085453;28;20183;-63
2021/10/05 07:08:57;;;;;;;4.93;1.40;;;13.70;99.90;;;;;;5086602;28;20211;-63
2021/10/05 07:11:23;;;;;;;5.97;1.38;;;13.80;99.90;;;;;;5086345;28;20199;-63
2021/10/05 07:13:49;;;;;;;5.85;1.63;;;13.90;99.90;;;;;;5086669;28;20323;-63
2021/10/05 07:16:15;;;;;;;4.03;1.45;;;14.00;99.90;;;;;;5085106;28;20203;-63
2021/10/05 07:18:40;;;;;;;5.68;1.30;;;14.10;99.90;;;;;;5086870;28;20171;-64
2021/10/05 07:21:06;;;;;;;8.00;1.25;;;14.10;99.90;;;;;;5086753;28;20172;-63
2021/10/05 07:23:32;;;;;;;4.40;1.38;;;14.10;99.90;;;;;;5086722;28;20167;-63
2021/10/05 07:25:58;;;;;;;2.97;1.50;;;14.20;99.90;;;;;;5086482;28;20222;-63
2021/10/05 07:28:23;;;;;;;14.68;1.45;;;14.20;99.90;;;;;;5086012;28;20191;-63
2021/10/05 07:30:49;;;;;;;11.32;1.83;;;14.20;99.90;;;;;;5086265;28;20164;-63
2021/10/05 07:33:15;;;;;;;14.88;2.10;;;14.30;99.90;;;;;;5086264;28;20164;-64
2021/10/05 07:35:41;;;;;;;5.85;1.10;;;14.40;99.90;;;;;;5086562;28;20156;-63
2021/10/05 07:38:07;;;;;;;6.43;1.42;;;14.30;99.90;;;;;;5086385;28;20197;-63
2021/10/05 07:40:33;;;;;;;5.50;1.40;;;14.40;99.90;;;;;;5086387;28;20163;-63
2021/10/05 07:43:00;;;;;;;9.38;1.73;;;14.40;99.90;;;;;;5085947;28;20298;-63
2021/10/05 07:45:28;;;;;;;5.63;1.13;;;14.40;99.90;;;;;;5086081;28;20235;-63
2021/10/05 07:47:54;;;;;;;7.70;1.55;;;14.40;99.90;;;;;;5086186;28;20175;-63
2021/10/05 07:50:21;;;;;;;4.95;1.42;;;14.50;99.90;;;;;;5086467;28;20187;-63
2021/10/05 07:52:46;;;;;;;9.38;1.70;;;14.50;99.90;;;;;;5086017;28;20181;-63
2021/10/05 07:55:12;;;;;;;5.05;1.45;;;14.40;99.90;;;;;;5086074;28;20187;-63
2021/10/05 07:57:39;;;;;;;9.82;1.75;;;14.40;99.90;;;;;;5085614;28;20194;-63
2021/10/05 08:00:09;;;;;;;9.40;1.52;;;14.60;99.90;;;;;;5086295;28;20163;-64
2021/10/05 08:02:35;;;;;;;6.78;1.45;;;14.70;99.90;;;;;;5084660;28;20156;-63
2021/10/05 08:05:00;;;;;;;5.82;1.77;;;14.70;99.90;;;;;;5086292;28;20193;-63
2021/10/05 08:07:26;;;;;;;9.63;2.15;;;14.70;99.90;;;;;;5085751;28;20588;-63
2021/10/05 08:09:57;;;;;;;5.55;1.40;;;14.60;99.90;;;;;;5084609;28;20279;-63
2021/10/05 08:12:24;;;;;;;7.22;1.55;;;14.60;99.90;;;;;;5085759;28;20164;-63
2021/10/05 08:14:51;;;;;;;4.72;1.20;;;14.70;99.90;;;;;;5086068;28;20164;-64
2021/10/05 08:17:17;;;;;;;7.25;1.48;;;14.80;99.90;;;;;;5085813;28;20217;-63
2021/10/05 08:19:43;;;;;;;12.75;1.90;;;14.80;99.90;;;;;;5084807;28;20214;-63
2021/10/05 08:22:10;;;;;;;6.88;1.75;;;15.00;99.90;;;;;;5085778;28;20641;-63
2021/10/05 08:24:36;;;;;;;4.93;1.80;;;15.00;99.90;;;;;;5086008;28;20179;-64
2021/10/05 08:27:05;;;;;;;11.93;1.77;;;14.90;99.90;;;;;;5085494;28;20258;-63
2021/10/05 08:29:37;;;;;;;4.15;1.80;;;15.00;99.90;;;;;;5085700;28;20183;-63
2021/10/05 08:32:04;;;;;;;5.55;1.40;;;14.90;99.90;;;;;;5085669;28;20156;-63
2021/10/05 08:34:30;;;;;;;5.50;1.55;;;14.90;99.90;;;;;;5086160;28;20164;-63
2021/10/05 08:36:55;;;;;;;5.72;1.63;;;15.00;99.90;;;;;;5085568;28;20168;-64
2021/10/05 08:39:21;;;;;;;1.95;1.30;;;15.10;99.90;;;;;;5085824;28;20214;-64
2021/10/05 08:41:47;;;;;;;3.25;1.13;;;15.20;99.90;;;;;;5085444;28;20168;-63
2021/10/05 08:44:14;;;;;;;4.15;1.15;;;15.20;99.90;;;;;;5085663;28;20179;-63
2021/10/05 08:46:41;;;;;;;2.47;1.05;;;15.20;99.90;;;;;;5085559;28;20174;-64
2021/10/05 08:49:07;;;;;;;14.40;1.38;;;15.30;99.90;;;;;;5084433;28;20188;-64
2021/10/05 08:51:34;;;;;;;4.28;1.00;;;15.40;99.90;;;;;;5084349;28;20262;-64
2021/10/05 08:54:01;;;;;;;6.40;1.30;;;15.50;99.90;;;;;;5085548;28;20259;-64
2021/10/05 08:56:26;;;;;;;5.68;1.42;;;15.70;99.90;;;;;;5084878;28;20172;-63
2021/10/05 08:58:52;;;;;;;5.60;1.20;;;15.70;99.90;;;;;;5085554;28;20298;-63
2021/10/05 09:01:18;;;;;;;7.18;1.63;;;15.80;99.90;;;;;;5085731;28;20228;-63
2021/10/05 09:03:54;;;;;;;6.25;1.23;;;15.80;99.90;;;;;;5085623;28;20176;-63
2021/10/05 09:06:22;;;;;;;2.63;0.90;;;15.90;99.90;;;;;;5085281;28;20167;-63
2021/10/05 09:08:49;;;;;;;2.50;1.00;;;15.90;99.90;;;;;;5085320;28;20220;-63
2021/10/05 09:11:18;;;;;;;4.53;0.90;;;15.90;99.90;;;;;;5085461;28;20176;-63
2021/10/05 09:13:46;;;;;;;4.78;1.38;;;16.00;99.90;;;;;;5085205;28;20225;-63
2021/10/05 09:16:16;;;;;;;4.88;1.08;;;16.00;99.90;;;;;;5086165;28;20232;-63
2021/10/05 09:19:01;;;;;;;6.97;1.40;;;16.00;99.90;;;;;;5089205;28;20160;-63
2021/10/05 09:21:29;;;;;;;3.58;0.93;;;16.00;99.90;;;;;;5089259;28;20519;-63
2021/10/05 09:24:09;;;;;;;9.73;1.50;;;15.80;99.90;;;;;;5089019;28;20223;-64
2021/10/05 09:26:49;;;;;;;4.43;1.23;;;15.70;99.90;;;;;;5087137;28;20247;-63
2021/10/05 09:29:17;;;;;;;1.80;1.08;;;15.70;99.90;;;;;;5088915;28;20676;-63
2021/10/05 09:32:05;;;;;;;2.63;1.02;;;15.70;99.90;;;;;;5088747;28;20167;-64
2021/10/05 09:34:55;;;;;;;5.28;1.20;;;15.70;99.90;;;;;;5088985;28;20178;-63
2021/10/05 09:37:30;;;;;;;4.53;1.35;;;15.60;99.90;;;;;;5088609;28;20157;-64
2021/10/05 09:40:04;;;;;;;4.90;1.27;;;15.20;99.90;;;;;;5088901;28;20155;-64
2021/10/05 09:42:39;;;;;;;12.02;1.48;;;15.20;99.90;;;;;;5088119;28;20172;-63
2021/10/05 09:45:16;;;;;;;5.47;1.35;;;15.00;99.90;;;;;;5087396;28;20174;-63
2021/10/05 09:47:44;;;;;;;10.63;1.30;;;15.00;99.90;;;;;;5087193;28;20209;-63
2021/10/05 09:50:24;;;;;;;8.68;1.85;;;14.90;99.90;;;;;;5088485;28;20188;-63
2021/10/05 09:52:58;;;;;;;9.68;1.50;;;15.00;99.90;;;;;;5088303;28;20175;-63
2021/10/05 09:55:27;;;;;;;3.63;1.35;;;14.90;99.90;;;;;;5088498;28;20162;-63
2021/10/05 09:57:53;;;;;;;2.55;1.23;;;14.80;99.90;;;;;;5088083;28;20161;-63
2021/10/05 10:00:22;;;;;;;6.10;1.45;;;14.70;99.90;;;;;;5088439;28;20307;-63
2021/10/05 10:02:48;;;;;;;4.65;1.70;;;14.60;99.90;;;;;;5088257;28;20194;-63
2021/10/05 10:05:16;;;;;;;5.82;2.00;;;14.60;99.90;;;;;;5088343;28;20172;-63
2021/10/05 10:07:44;;;;;;;7.00;1.67;;;14.60;99.90;;;;;;5087751;28;20171;-63
2021/10/05 10:10:13;;;;;;;6.60;2.13;;;14.50;99.90;;;;;;5088099;28;20206;-63
2021/10/05 10:12:52;;;;;;;5.40;1.70;;;14.40;99.90;;;;;;5087420;28;20214;-63
2021/10/05 10:15:19;;;;;;;5.70;1.70;;;14.40;99.90;;;;;;5087966;28;20148;-63
2021/10/05 10:17:46;;;;;;;4.30;1.60;;;14.40;99.90;;;;;;5087666;28;20152;-63
2021/10/05 10:20:26;;;;;;;4.85;1.70;;;14.50;99.90;;;;;;5087719;28;20161;-63
2021/10/05 10:22:52;;;;;;;7.65;2.40;;;14.50;99.90;;;;;;5087613;28;20164;-63
2021/10/05 10:25:32;;;;;;;11.50;2.20;;;14.60;99.90;;;;;;5087805;28;20163;-63
2021/10/05 10:28:11;;;;;;;10.73;2.30;;;14.90;99.90;;;;;;5087127;28;20167;-63
2021/10/05 10:30:50;;;;;;;5.07;1.80;;;14.80;99.90;;;;;;5087829;28;20164;-63
2021/10/05 10:33:18;;;;;;;6.95;2.03;;;14.60;99.90;;;;;;5087496;28;20160;-63
2021/10/05 10:35:52;;;;;;;4.82;1.90;;;14.50;99.90;;;;;;5069553;28;20184;-63
2021/10/05 10:38:30;;;;;;;11.98;2.10;;;14.50;99.90;;;;;;5087364;28;20179;-63
2021/10/05 10:40:59;;;;;;;4.53;1.88;;;14.40;99.90;;;;;;5087406;28;20191;-63
2021/10/05 10:43:28;;;;;;;6.00;1.75;;;14.40;99.90;;;;;;5087218;28;20168;-63
2021/10/05 10:45:55;;;;;;;5.43;1.88;;;14.30;99.90;;;;;;5087419;28;20187;-63
2021/10/05 10:48:31;;;;;;;6.10;1.95;;;14.40;99.90;;;;;;5087062;28;20172;-63
2021/10/05 10:50:59;;;;;;;5.38;1.60;;;14.40;99.90;;;;;;5086120;28;20172;-62
2021/10/05 10:53:40;;;;;;;3.53;1.85;;;14.40;99.90;;;;;;5087205;28;20160;-63
2021/10/05 10:56:06;;;;;;;4.72;2.05;;;14.40;99.90;;;;;;5085756;28;20174;-63
2021/10/05 10:58:34;;;;;;;7.30;2.10;;;14.40;99.90;;;;;;5086553;28;20206;-63
2021/10/05 11:01:00;;;;;;;7.97;1.38;;;14.40;99.90;;;;;;5087274;28;20224;-62
2021/10/05 11:03:28;;;;;;;8.02;1.73;;;14.40;99.90;;;;;;5086964;28;20164;-63
2021/10/05 11:05:54;;;;;;;4.63;2.00;;;14.50;99.90;;;;;;5087006;28;20168;-63
2021/10/05 11:08:19;;;;;;;6.07;1.95;;;14.60;99.90;;;;;;5086140;28;20250;-62
2021/10/05 11:10:45;;;;;;;9.98;2.47;;;14.60;99.90;;;;;;5085615;28;20156;-63
2021/10/05 11:13:10;;;;;;;5.53;2.17;;;14.70;99.90;;;;;;5086498;28;20164;-63
2021/10/05 11:15:39;;;;;;;3.70;2.30;;;14.80;99.90;;;;;;5085616;28;20313;-63
2021/10/05 11:18:09;;;;;;;9.77;2.60;;;14.90;99.90;;;;;;5086600;28;20160;-63
2021/10/05 11:20:37;;;;;;;9.25;1.88;;;14.80;99.90;;;;;;5086709;28;20277;-63
2021/10/05 11:23:03;;;;;;;6.18;2.10;;;14.70;99.90;;;;;;5086604;28;20220;-64
2021/10/05 11:25:30;;;;;;;4.30;1.67;;;14.60;99.90;;;;;;5086509;28;20168;-64
2021/10/05 11:27:56;;;;;;;4.05;1.83;;;14.70;99.90;;;;;;5085944;28;20236;-64
2021/10/05 11:30:22;;;;;;;5.72;1.90;;;14.60;99.90;;;;;;5086106;28;20179;-64
2021/10/05 11:32:49;;;;;;;2.53;1.50;;;14.60;99.90;;;;;;5084921;28;20164;-64
2021/10/05 11:35:15;;;;;;;5.40;1.73;;;14.60;99.90;;;;;;5086600;28;20209;-64
2021/10/05 11:37:40;;;;;;;3.92;2.25;;;14.60;99.90;;;;;;5086130;28;20164;-64
2021/10/05 11:40:07;;;;;;;2.55;1.40;;;14.60;99.90;;;;;;5086096;28;20175;-64
2021/10/05 11:42:32;;;;;;;3.65;1.30;;;14.50;99.90;;;;;;5086043;28;20172;-64
2021/10/05 11:45:04;;;;;;;3.38;1.35;;;14.40;99.90;;;;;;5086241;28;20206;-64
2021/10/05 11:47:31;;;;;;;3.47;1.13;;;14.30;99.90;;;;;;5086065;28;20258;-64
2021/10/05 11:50:04;;;;;;;3.53;1.13;;;14.30;99.90;;;;;;5086235;28;20188;-64
2021/10/05 11:52:35;;;;;;;1.98;1.10;;;14.40;99.90;;;;;;5086170;28;20160;-64
2021/10/05 11:55:02;;;;;;;2.30;1.70;;;14.60;99.90;;;;;;5086324;28;20151;-64
2021/10/05 11:57:30;;;;;;;2.25;1.10;;;14.50;99.90;;;;;;5085171;28;20267;-64
2021/10/05 12:00:05;;;;;;;4.05;1.55;;;14.50;99.90;;;;;;5085914;28;20160;-64
2021/10/05 12:02:32;;;;;;;2.60;1.10;;;14.50;99.90;;;;;;5085861;28;20194;-64
2021/10/05 12:04:58;;;;;;;1.42;1.00;;;14.50;99.90;;;;;;5085935;28;20652;-64
2021/10/05 12:07:25;;;;;;;3.55;0.80;;;14.50;99.90;;;;;;5085549;28;20186;-64
2021/10/05 12:10:02;;;;;;;1.15;0.75;;;14.50;99.90;;;;;;5086114;28;20267;-64
2021/10/05 12:12:31;;;;;;;3.88;1.00;;;14.60;99.90;;;;;;5085508;28;20696;-64
2021/10/05 12:15:02;;;;;;;1.75;0.93;;;14.60;99.90;;;;;;5085977;28;20640;-64
2021/10/05 12:17:30;;;;;;;2.47;1.13;;;14.50;99.90;;;;;;5085871;28;20251;-64
2021/10/05 12:19:59;;;;;;;4.18;0.90;;;14.40;99.90;;;;;;5085930;28;20172;-64
2021/10/05 12:22:31;;;;;;;1.15;0.82;;;14.40;99.90;;;;;;5084313;28;20171;-64
2021/10/05 12:25:24;;;;;;;0.52;0.50;;;14.40;99.90;;;;;;5084531;28;20179;-63
2021/10/05 12:27:52;;;;;;;3.28;0.93;;;14.40;99.90;;;;;;5084983;28;20183;-64
2021/10/05 12:30:27;;;;;;;2.60;0.90;;;14.50;99.90;;;;;;5085674;28;20210;-64
2021/10/05 12:32:55;;;;;;;2.05;0.98;;;14.50;99.90;;;;;;5085768;28;20194;-64
2021/10/05 12:35:23;;;;;;;2.08;0.90;;;14.60;99.90;;;;;;5085800;28;20156;-64
2021/10/05 12:38:02;;;;;;;1.98;1.00;;;14.90;99.90;;;;;;5085399;28;20331;-64
2021/10/05 12:40:39;;;;;;;1.83;1.17;;;15.20;99.90;;;;;;5085985;28;20164;-64
2021/10/05 12:43:05;;;;;;;1.50;0.88;;;15.50;99.90;;;;;;5085377;28;20183;-65
2021/10/05 12:45:30;;;;;;;3.60;1.00;;;15.50;99.90;;;;;;5085649;28;20172;-64
2021/10/05 12:48:01;;;;;;;3.72;0.80;;;15.60;99.90;;;;;;5085495;28;20168;-64